sensor_id;sensor_type;location;lat;lon;timestamp;pressure;altitude;pressure_sealevel;temperature;humidity
64644;BME280;51056;50.330;7.914;2023-05-25T00:03:01;101448.91;;;7.68;81.53
64644;BME280;51056;50.330;7.914;2023-05-25T00:06:05;101451.81;;;7.57;81.77
64644;BME280;51056;50.330;7.914;2023-05-25T00:09:08;101450.25;;;7.50;82.05
64644;BME280;51056;50.330;7.914;2023-05-25T00:12:12;101452.09;;;7.45;82.52
64644;BME280;51056;50.330;7.914;2023-05-25T00:15:15;101454.97;;;7.34;82.64
64644;BME280;51056;50.330;7.914;2023-05-25T00:18:18;101459.41;;;7.31;83.41
64644;BME280;51056;50.330;7.914;2023-05-25T00:21:22;101459.50;;;7.26;83.05
64644;BME280;51056;50.330;7.914;2023-05-25T00:24:27;101455.63;;;7.44;82.04
64644;BME280;51056;50.330;7.914;2023-05-25T00:27:30;101453.72;;;7.51;80.69
64644;BME280;51056;50.330;7.914;2023-05-25T00:30:33;101455.97;;;7.29;81.93
64644;BME280;51056;50.330;7.914;2023-05-25T00:33:36;101456.13;;;7.22;82.83
64644;BME280;51056;50.330;7.914;2023-05-25T00:36:41;101451.25;;;7.07;83.35
64644;BME280;51056;50.330;7.914;2023-05-25T00:39:50;101451.19;;;7.10;83.12
64644;BME280;51056;50.330;7.914;2023-05-25T00:42:54;101451.34;;;7.04;83.54
64644;BME280;51056;50.330;7.914;2023-05-25T00:45:57;101448.72;;;7.06;83.53
64644;BME280;51056;50.330;7.914;2023-05-25T00:49:00;101446.97;;;7.05;83.43
64644;BME280;51056;50.330;7.914;2023-05-25T00:52:03;101451.81;;;7.21;82.61
64644;BME280;51056;50.330;7.914;2023-05-25T00:55:07;101449.78;;;7.33;80.97
64644;BME280;51056;50.330;7.914;2023-05-25T00:58:13;101448.53;;;7.13;81.72
64644;BME280;51056;50.330;7.914;2023-05-25T01:01:19;101453.13;;;7.02;82.42
64644;BME280;51056;50.330;7.914;2023-05-25T01:04:23;101446.41;;;6.92;82.59
64644;BME280;51056;50.330;7.914;2023-05-25T01:07:31;101451.53;;;6.95;82.37
64644;BME280;51056;50.330;7.914;2023-05-25T01:10:35;101448.66;;;7.07;81.69
64644;BME280;51056;50.330;7.914;2023-05-25T01:13:39;101441.34;;;6.86;82.47
64644;BME280;51056;50.330;7.914;2023-05-25T01:16:44;101446.41;;;6.92;82.16
64644;BME280;51056;50.330;7.914;2023-05-25T01:19:48;101440.59;;;6.81;82.41
64644;BME280;51056;50.330;7.914;2023-05-25T01:23:06;101439.84;;;6.75;82.92
64644;BME280;51056;50.330;7.914;2023-05-25T01:26:14;101432.47;;;6.96;82.08
64644;BME280;51056;50.330;7.914;2023-05-25T01:29:18;101437.72;;;6.93;81.36
64644;BME280;51056;50.330;7.914;2023-05-25T01:32:23;101439.25;;;6.63;82.82
64644;BME280;51056;50.330;7.914;2023-05-25T01:35:26;101438.44;;;6.61;82.47
64644;BME280;51056;50.330;7.914;2023-05-25T01:38:29;101433.19;;;6.62;82.87
64644;BME280;51056;50.330;7.914;2023-05-25T01:41:33;101441.22;;;6.51;83.00
64644;BME280;51056;50.330;7.914;2023-05-25T01:44:36;101432.66;;;6.46;83.15
64644;BME280;51056;50.330;7.914;2023-05-25T01:47:43;101434.03;;;6.63;82.86
64644;BME280;51056;50.330;7.914;2023-05-25T01:50:50;101439.13;;;6.69;82.33
64644;BME280;51056;50.330;7.914;2023-05-25T01:53:57;101434.97;;;6.60;82.57
64644;BME280;51056;50.330;7.914;2023-05-25T01:57:03;101432.44;;;6.57;82.78
64644;BME280;51056;50.330;7.914;2023-05-25T02:00:08;101430.66;;;6.61;82.56
64644;BME280;51056;50.330;7.914;2023-05-25T02:03:16;101436.03;;;6.51;82.60
64644;BME280;51056;50.330;7.914;2023-05-25T02:06:20;101434.25;;;6.53;82.65
64644;BME280;51056;50.330;7.914;2023-05-25T02:09:23;101433.56;;;6.44;82.47
64644;BME280;51056;50.330;7.914;2023-05-25T02:12:27;101430.13;;;6.43;82.91
64644;BME280;51056;50.330;7.914;2023-05-25T02:15:31;101434.56;;;6.38;82.77
64644;BME280;51056;50.330;7.914;2023-05-25T02:18:34;101440.22;;;6.57;81.76
64644;BME280;51056;50.330;7.914;2023-05-25T02:21:38;101431.50;;;6.61;80.91
64644;BME280;51056;50.330;7.914;2023-05-25T02:24:41;101441.31;;;6.47;80.80
64644;BME280;51056;50.330;7.914;2023-05-25T02:27:44;101435.19;;;6.51;80.83
64644;BME280;51056;50.330;7.914;2023-05-25T02:30:47;101441.28;;;6.48;81.30
64644;BME280;51056;50.330;7.914;2023-05-25T02:33:50;101438.31;;;6.65;80.68
64644;BME280;51056;50.330;7.914;2023-05-25T02:36:55;101439.97;;;6.69;80.24
64644;BME280;51056;50.330;7.914;2023-05-25T02:39:58;101439.22;;;6.64;79.63
64644;BME280;51056;50.330;7.914;2023-05-25T02:43:01;101441.06;;;6.59;80.12
64644;BME280;51056;50.330;7.914;2023-05-25T02:46:05;101438.03;;;6.39;81.07
64644;BME280;51056;50.330;7.914;2023-05-25T02:49:08;101443.34;;;6.31;81.65
64644;BME280;51056;50.330;7.914;2023-05-25T02:52:12;101437.13;;;6.40;81.71
64644;BME280;51056;50.330;7.914;2023-05-25T02:55:15;101448.50;;;6.34;81.19
64644;BME280;51056;50.330;7.914;2023-05-25T02:58:21;101450.47;;;6.21;82.30
64644;BME280;51056;50.330;7.914;2023-05-25T03:01:46;101445.63;;;6.48;80.61
64644;BME280;51056;50.330;7.914;2023-05-25T03:04:50;101450.06;;;6.43;80.36
64644;BME280;51056;50.330;7.914;2023-05-25T03:07:55;101451.63;;;6.51;79.20
64644;BME280;51056;50.330;7.914;2023-05-25T03:10:59;101459.03;;;6.26;81.11
64644;BME280;51056;50.330;7.914;2023-05-25T03:14:02;101463.56;;;6.15;82.22
64644;BME280;51056;50.330;7.914;2023-05-25T03:17:07;101464.56;;;6.10;82.22
64644;BME280;51056;50.330;7.914;2023-05-25T03:20:10;101452.44;;;6.09;82.25
64644;BME280;51056;50.330;7.914;2023-05-25T03:23:16;101466.47;;;6.00;82.85
64644;BME280;51056;50.330;7.914;2023-05-25T03:26:19;101458.38;;;6.15;81.71
64644;BME280;51056;50.330;7.914;2023-05-25T03:29:25;101458.19;;;6.26;80.79
64644;BME280;51056;50.330;7.914;2023-05-25T03:32:28;101457.25;;;6.30;79.24
64644;BME280;51056;50.330;7.914;2023-05-25T03:35:31;101459.69;;;6.38;79.13
64644;BME280;51056;50.330;7.914;2023-05-25T03:38:35;101450.75;;;6.06;81.44
64644;BME280;51056;50.330;7.914;2023-05-25T03:41:38;101457.81;;;5.99;82.08
64644;BME280;51056;50.330;7.914;2023-05-25T03:44:41;101453.34;;;6.08;81.98
64644;BME280;51056;50.330;7.914;2023-05-25T03:47:47;101470.34;;;6.25;80.49
64644;BME280;51056;50.330;7.914;2023-05-25T03:50:50;101468.59;;;6.26;80.65
64644;BME280;51056;50.330;7.914;2023-05-25T03:53:53;101474.06;;;6.09;81.76
64644;BME280;51056;50.330;7.914;2023-05-25T03:56:56;101486.41;;;5.98;82.27
64644;BME280;51056;50.330;7.914;2023-05-25T04:00:02;101485.75;;;5.85;83.01
64644;BME280;51056;50.330;7.914;2023-05-25T04:03:15;101487.53;;;5.80;83.19
64644;BME280;51056;50.330;7.914;2023-05-25T04:06:19;101493.81;;;5.68;83.72
64644;BME280;51056;50.330;7.914;2023-05-25T04:09:24;101504.09;;;5.74;83.83
64644;BME280;51056;50.330;7.914;2023-05-25T04:12:27;101503.78;;;5.93;83.04
64644;BME280;51056;50.330;7.914;2023-05-25T04:15:30;101507.31;;;5.89;82.65
64644;BME280;51056;50.330;7.914;2023-05-25T04:18:40;101503.78;;;5.93;82.13
64644;BME280;51056;50.330;7.914;2023-05-25T04:21:43;101502.63;;;6.11;80.80
64644;BME280;51056;50.330;7.914;2023-05-25T04:24:47;101510.16;;;6.24;80.28
64644;BME280;51056;50.330;7.914;2023-05-25T04:27:50;101502.47;;;6.18;81.34
64644;BME280;51056;50.330;7.914;2023-05-25T04:31:06;101510.09;;;6.27;81.13
64644;BME280;51056;50.330;7.914;2023-05-25T04:34:30;101507.78;;;6.12;81.45
64644;BME280;51056;50.330;7.914;2023-05-25T04:37:47;101517.03;;;6.27;81.22
64644;BME280;51056;50.330;7.914;2023-05-25T04:40:51;101518.78;;;6.26;80.48
64644;BME280;51056;50.330;7.914;2023-05-25T04:43:57;101519.41;;;6.38;80.20
64644;BME280;51056;50.330;7.914;2023-05-25T04:47:01;101521.00;;;6.46;79.85
64644;BME280;51056;50.330;7.914;2023-05-25T04:50:10;101525.22;;;6.52;79.83
64644;BME280;51056;50.330;7.914;2023-05-25T04:53:14;101532.97;;;6.55;80.27
64644;BME280;51056;50.330;7.914;2023-05-25T04:56:17;101535.63;;;6.52;80.16
64644;BME280;51056;50.330;7.914;2023-05-25T04:59:21;101542.53;;;6.53;80.44
64644;BME280;51056;50.330;7.914;2023-05-25T05:02:24;101545.13;;;6.53;80.95
64644;BME280;51056;50.330;7.914;2023-05-25T05:05:27;101547.66;;;6.56;81.31
64644;BME280;51056;50.330;7.914;2023-05-25T05:08:32;101550.84;;;6.70;80.41
64644;BME280;51056;50.330;7.914;2023-05-25T05:11:35;101553.19;;;6.83;80.57
64644;BME280;51056;50.330;7.914;2023-05-25T05:14:39;101560.81;;;6.92;80.50
64644;BME280;51056;50.330;7.914;2023-05-25T05:17:43;101563.34;;;6.95;80.43
64644;BME280;51056;50.330;7.914;2023-05-25T05:20:49;101564.13;;;7.00;80.32
64644;BME280;51056;50.330;7.914;2023-05-25T05:23:53;101572.94;;;6.93;80.92
64644;BME280;51056;50.330;7.914;2023-05-25T05:26:58;101577.06;;;7.03;81.16
64644;BME280;51056;50.330;7.914;2023-05-25T05:30:05;101586.38;;;7.13;80.72
64644;BME280;51056;50.330;7.914;2023-05-25T05:33:09;101589.03;;;7.12;81.49
64644;BME280;51056;50.330;7.914;2023-05-25T05:36:20;101600.22;;;7.15;81.48
64644;BME280;51056;50.330;7.914;2023-05-25T05:39:23;101598.34;;;7.22;81.56
64644;BME280;51056;50.330;7.914;2023-05-25T05:42:26;101591.13;;;7.35;81.41
64644;BME280;51056;50.330;7.914;2023-05-25T05:45:29;101598.69;;;7.45;81.43
64644;BME280;51056;50.330;7.914;2023-05-25T05:48:34;101593.31;;;7.53;81.20
64644;BME280;51056;50.330;7.914;2023-05-25T05:51:37;101587.09;;;7.60;80.77
64644;BME280;51056;50.330;7.914;2023-05-25T05:54:40;101584.34;;;7.66;80.68
64644;BME280;51056;50.330;7.914;2023-05-25T05:57:47;101580.69;;;7.74;81.11
64644;BME280;51056;50.330;7.914;2023-05-25T06:00:51;101589.25;;;7.79;81.73
64644;BME280;51056;50.330;7.914;2023-05-25T06:03:55;101592.66;;;7.82;81.54
64644;BME280;51056;50.330;7.914;2023-05-25T06:06:58;101588.06;;;7.92;81.95
64644;BME280;51056;50.330;7.914;2023-05-25T06:10:01;101594.72;;;8.04;81.43
64644;BME280;51056;50.330;7.914;2023-05-25T06:13:05;101592.03;;;8.07;81.73
64644;BME280;51056;50.330;7.914;2023-05-25T06:16:11;101582.41;;;8.10;82.01
64644;BME280;51056;50.330;7.914;2023-05-25T06:19:14;101580.53;;;8.15;82.52
64644;BME280;51056;50.330;7.914;2023-05-25T06:22:16;101578.44;;;8.30;82.17
64644;BME280;51056;50.330;7.914;2023-05-25T06:25:20;101574.00;;;8.33;82.08
64644;BME280;51056;50.330;7.914;2023-05-25T06:28:24;101577.19;;;8.45;81.64
64644;BME280;51056;50.330;7.914;2023-05-25T06:31:27;101585.53;;;8.57;82.10
64644;BME280;51056;50.330;7.914;2023-05-25T06:34:30;101588.75;;;8.67;82.54
64644;BME280;51056;50.330;7.914;2023-05-25T06:37:34;101583.22;;;8.79;82.12
64644;BME280;51056;50.330;7.914;2023-05-25T06:40:40;101581.09;;;8.92;82.39
64644;BME280;51056;50.330;7.914;2023-05-25T06:43:43;101581.59;;;9.06;82.30
64644;BME280;51056;50.330;7.914;2023-05-25T06:46:50;101586.31;;;9.22;81.93
64644;BME280;51056;50.330;7.914;2023-05-25T06:49:53;101585.97;;;9.34;81.28
64644;BME280;51056;50.330;7.914;2023-05-25T06:52:56;101579.44;;;9.49;81.06
64644;BME280;51056;50.330;7.914;2023-05-25T06:55:59;101584.03;;;9.69;82.98
64644;BME280;51056;50.330;7.914;2023-05-25T06:59:02;101580.09;;;9.84;82.64
64644;BME280;51056;50.330;7.914;2023-05-25T07:02:05;101582.13;;;10.00;83.51
64644;BME280;51056;50.330;7.914;2023-05-25T07:05:08;101574.69;;;10.15;84.45
64644;BME280;51056;50.330;7.914;2023-05-25T07:08:11;101573.22;;;10.33;84.29
64644;BME280;51056;50.330;7.914;2023-05-25T07:11:14;101571.97;;;10.44;83.42
64644;BME280;51056;50.330;7.914;2023-05-25T07:14:17;101573.84;;;10.66;84.32
64644;BME280;51056;50.330;7.914;2023-05-25T07:17:20;101579.09;;;10.88;84.71
64644;BME280;51056;50.330;7.914;2023-05-25T07:20:23;101578.94;;;11.16;82.73
64644;BME280;51056;50.330;7.914;2023-05-25T07:23:26;101573.34;;;11.25;82.41
64644;BME280;51056;50.330;7.914;2023-05-25T07:26:29;101579.53;;;11.46;81.61
64644;BME280;51056;50.330;7.914;2023-05-25T07:29:33;101575.28;;;11.44;79.47
64644;BME280;51056;50.330;7.914;2023-05-25T07:32:36;101568.59;;;11.58;80.84
64644;BME280;51056;50.330;7.914;2023-05-25T07:35:40;101569.56;;;11.78;78.98
64644;BME280;51056;50.330;7.914;2023-05-25T07:38:43;101573.44;;;11.90;78.92
64644;BME280;51056;50.330;7.914;2023-05-25T07:41:46;101563.78;;;11.92;77.67
64644;BME280;51056;50.330;7.914;2023-05-25T07:44:49;101561.03;;;11.95;78.06
64644;BME280;51056;50.330;7.914;2023-05-25T07:47:52;101552.44;;;12.12;78.67
64644;BME280;51056;50.330;7.914;2023-05-25T07:50:58;101556.19;;;12.26;77.88
64644;BME280;51056;50.330;7.914;2023-05-25T07:54:01;101564.56;;;12.34;76.68
64644;BME280;51056;50.330;7.914;2023-05-25T07:57:04;101559.78;;;12.44;75.75
64644;BME280;51056;50.330;7.914;2023-05-25T08:00:09;101558.25;;;12.59;75.33
64644;BME280;51056;50.330;7.914;2023-05-25T08:03:19;101561.56;;;12.83;74.86
64644;BME280;51056;50.330;7.914;2023-05-25T08:06:22;101556.25;;;12.85;74.01
64644;BME280;51056;50.330;7.914;2023-05-25T08:09:25;101566.19;;;12.97;73.81
64644;BME280;51056;50.330;7.914;2023-05-25T08:12:28;101556.47;;;12.99;73.11
64644;BME280;51056;50.330;7.914;2023-05-25T08:15:31;101556.78;;;13.12;72.72
64644;BME280;51056;50.330;7.914;2023-05-25T08:18:34;101558.38;;;13.14;72.51
64644;BME280;51056;50.330;7.914;2023-05-25T08:21:37;101543.69;;;13.10;72.13
64644;BME280;51056;50.330;7.914;2023-05-25T08:24:42;101550.34;;;13.17;72.52
64644;BME280;51056;50.330;7.914;2023-05-25T08:27:45;101546.97;;;13.15;70.63
64644;BME280;51056;50.330;7.914;2023-05-25T08:30:48;101539.56;;;13.23;71.06
64644;BME280;51056;50.330;7.914;2023-05-25T08:33:51;101553.22;;;13.32;70.88
64644;BME280;51056;50.330;7.914;2023-05-25T08:36:57;101549.25;;;13.42;70.67
64644;BME280;51056;50.330;7.914;2023-05-25T08:40:01;101540.28;;;13.46;70.71
64644;BME280;51056;50.330;7.914;2023-05-25T08:43:05;101546.59;;;13.42;68.91
64644;BME280;51056;50.330;7.914;2023-05-25T08:46:08;101553.22;;;13.32;69.24
64644;BME280;51056;50.330;7.914;2023-05-25T08:49:13;101545.50;;;13.29;69.30
64644;BME280;51056;50.330;7.914;2023-05-25T08:52:17;101545.56;;;13.27;69.42
64644;BME280;51056;50.330;7.914;2023-05-25T08:55:23;101553.63;;;13.22;70.13
64644;BME280;51056;50.330;7.914;2023-05-25T08:58:32;101548.13;;;13.29;70.18
64644;BME280;51056;50.330;7.914;2023-05-25T09:01:37;101540.56;;;13.40;70.36
64644;BME280;51056;50.330;7.914;2023-05-25T09:04:41;101538.16;;;13.54;69.50
64644;BME280;51056;50.330;7.914;2023-05-25T09:07:45;101547.97;;;13.68;67.88
64644;BME280;51056;50.330;7.914;2023-05-25T09:10:48;101547.75;;;13.72;67.19
64644;BME280;51056;50.330;7.914;2023-05-25T09:13:52;101551.69;;;13.81;67.62
64644;BME280;51056;50.330;7.914;2023-05-25T09:16:55;101536.94;;;13.96;64.11
64644;BME280;51056;50.330;7.914;2023-05-25T09:19:59;101548.94;;;14.02;63.81
64644;BME280;51056;50.330;7.914;2023-05-25T09:23:03;101544.06;;;14.11;64.44
64644;BME280;51056;50.330;7.914;2023-05-25T09:26:06;101539.25;;;14.37;63.70
64644;BME280;51056;50.330;7.914;2023-05-25T09:29:12;101536.75;;;14.51;63.62
64644;BME280;51056;50.330;7.914;2023-05-25T09:32:16;101537.31;;;14.74;63.12
64644;BME280;51056;50.330;7.914;2023-05-25T09:35:19;101543.09;;;14.80;62.06
64644;BME280;51056;50.330;7.914;2023-05-25T09:38:25;101529.97;;;14.96;61.54
64644;BME280;51056;50.330;7.914;2023-05-25T09:41:28;101530.91;;;14.95;61.35
64644;BME280;51056;50.330;7.914;2023-05-25T09:44:32;101522.06;;;15.12;60.34
64644;BME280;51056;50.330;7.914;2023-05-25T09:47:35;101533.81;;;15.06;59.19
64644;BME280;51056;50.330;7.914;2023-05-25T09:50:38;101526.16;;;15.18;57.86
64644;BME280;51056;50.330;7.914;2023-05-25T09:53:41;101521.31;;;15.26;60.58
64644;BME280;51056;50.330;7.914;2023-05-25T09:56:44;101511.25;;;15.48;58.91
64644;BME280;51056;50.330;7.914;2023-05-25T09:59:48;101515.41;;;15.68;57.40
64644;BME280;51056;50.330;7.914;2023-05-25T10:02:51;101509.72;;;15.90;56.58
64644;BME280;51056;50.330;7.914;2023-05-25T10:05:54;101513.69;;;15.83;57.04
64644;BME280;51056;50.330;7.914;2023-05-25T10:08:59;101513.31;;;15.89;58.01
64644;BME280;51056;50.330;7.914;2023-05-25T10:12:01;101508.59;;;15.94;57.90
64644;BME280;51056;50.330;7.914;2023-05-25T10:15:04;101505.25;;;16.07;57.10
64644;BME280;51056;50.330;7.914;2023-05-25T10:18:08;101507.47;;;15.98;58.49
64644;BME280;51056;50.330;7.914;2023-05-25T10:21:13;101507.63;;;16.40;58.13
64644;BME280;51056;50.330;7.914;2023-05-25T10:24:23;101511.88;;;16.42;56.77
64644;BME280;51056;50.330;7.914;2023-05-25T10:27:32;101508.50;;;16.40;54.61
64644;BME280;51056;50.330;7.914;2023-05-25T10:30:36;101503.97;;;16.28;55.38
64644;BME280;51056;50.330;7.914;2023-05-25T10:33:41;101513.00;;;16.52;54.73
64644;BME280;51056;50.330;7.914;2023-05-25T10:36:46;101514.22;;;16.61;55.47
64644;BME280;51056;50.330;7.914;2023-05-25T10:39:50;101508.84;;;16.48;54.16
64644;BME280;51056;50.330;7.914;2023-05-25T10:42:55;101509.63;;;16.50;54.85
64644;BME280;51056;50.330;7.914;2023-05-25T10:45:58;101510.44;;;16.65;54.85
64644;BME280;51056;50.330;7.914;2023-05-25T10:49:01;101509.81;;;16.90;54.73
64644;BME280;51056;50.330;7.914;2023-05-25T10:52:04;101497.03;;;16.97;53.27
64644;BME280;51056;50.330;7.914;2023-05-25T10:55:08;101495.28;;;16.98;53.72
64644;BME280;51056;50.330;7.914;2023-05-25T10:58:12;101497.16;;;16.95;52.85
64644;BME280;51056;50.330;7.914;2023-05-25T11:01:15;101496.00;;;17.00;53.50
64644;BME280;51056;50.330;7.914;2023-05-25T11:04:18;101495.09;;;17.28;53.27
64644;BME280;51056;50.330;7.914;2023-05-25T11:07:21;101494.25;;;17.27;53.00
64644;BME280;51056;50.330;7.914;2023-05-25T11:10:49;101490.97;;;17.24;52.76
64644;BME280;51056;50.330;7.914;2023-05-25T11:13:53;101482.59;;;17.57;51.64
64644;BME280;51056;50.330;7.914;2023-05-25T11:17:05;101486.59;;;17.50;52.69
64644;BME280;51056;50.330;7.914;2023-05-25T11:20:22;101479.00;;;17.58;50.10
64644;BME280;51056;50.330;7.914;2023-05-25T11:23:29;101472.94;;;17.43;50.71
64644;BME280;51056;50.330;7.914;2023-05-25T11:26:32;101473.09;;;17.67;51.22
64644;BME280;51056;50.330;7.914;2023-05-25T11:29:35;101470.66;;;17.64;48.83
64644;BME280;51056;50.330;7.914;2023-05-25T11:32:43;101469.31;;;17.71;49.04
64644;BME280;51056;50.330;7.914;2023-05-25T11:35:50;101461.25;;;17.73;52.01
64644;BME280;51056;50.330;7.914;2023-05-25T11:38:54;101464.50;;;17.91;52.03
64644;BME280;51056;50.330;7.914;2023-05-25T11:42:03;101455.94;;;18.00;50.71
64644;BME280;51056;50.330;7.914;2023-05-25T11:45:10;101450.94;;;18.08;47.99
64644;BME280;51056;50.330;7.914;2023-05-25T11:48:15;101448.50;;;18.05;48.60
64644;BME280;51056;50.330;7.914;2023-05-25T11:51:21;101445.63;;;18.21;47.96
64644;BME280;51056;50.330;7.914;2023-05-25T11:54:26;101443.84;;;18.08;48.06
64644;BME280;51056;50.330;7.914;2023-05-25T11:57:29;101443.41;;;18.27;49.18
64644;BME280;51056;50.330;7.914;2023-05-25T12:00:33;101435.38;;;18.29;47.59
64644;BME280;51056;50.330;7.914;2023-05-25T12:03:36;101437.91;;;18.30;48.39
64644;BME280;51056;50.330;7.914;2023-05-25T12:06:39;101431.75;;;18.43;47.68
64644;BME280;51056;50.330;7.914;2023-05-25T12:09:43;101439.59;;;18.44;46.97
64644;BME280;51056;50.330;7.914;2023-05-25T12:12:49;101424.84;;;18.40;46.20
64644;BME280;51056;50.330;7.914;2023-05-25T12:15:53;101427.69;;;18.50;47.48
64644;BME280;51056;50.330;7.914;2023-05-25T12:18:59;101411.13;;;18.72;47.35
64644;BME280;51056;50.330;7.914;2023-05-25T12:22:04;101411.28;;;18.94;46.92
64644;BME280;51056;50.330;7.914;2023-05-25T12:25:09;101405.09;;;19.42;47.13
64644;BME280;51056;50.330;7.914;2023-05-25T12:28:13;101402.72;;;19.50;45.36
64644;BME280;51056;50.330;7.914;2023-05-25T12:31:24;101399.44;;;19.46;44.24
64644;BME280;51056;50.330;7.914;2023-05-25T12:34:29;101397.97;;;19.42;45.58
64644;BME280;51056;50.330;7.914;2023-05-25T12:37:34;101403.41;;;19.52;45.84
64644;BME280;51056;50.330;7.914;2023-05-25T12:40:42;101403.75;;;19.83;44.53
64644;BME280;51056;50.330;7.914;2023-05-25T12:43:47;101400.38;;;19.81;44.73
64644;BME280;51056;50.330;7.914;2023-05-25T12:46:51;101397.03;;;20.01;44.29
64644;BME280;51056;50.330;7.914;2023-05-25T12:50:14;101388.94;;;20.25;43.25
64644;BME280;51056;50.330;7.914;2023-05-25T12:53:19;101389.13;;;20.44;43.07
64644;BME280;51056;50.330;7.914;2023-05-25T12:56:23;101385.44;;;20.36;42.96
64644;BME280;51056;50.330;7.914;2023-05-25T12:59:26;101389.53;;;20.51;42.90
64644;BME280;51056;50.330;7.914;2023-05-25T13:02:29;101385.88;;;20.75;42.51
64644;BME280;51056;50.330;7.914;2023-05-25T13:05:33;101381.59;;;20.83;42.11
64644;BME280;51056;50.330;7.914;2023-05-25T13:08:36;101381.53;;;21.06;41.99
64644;BME280;51056;50.330;7.914;2023-05-25T13:11:41;101375.06;;;21.20;40.42
64644;BME280;51056;50.330;7.914;2023-05-25T13:14:44;101371.31;;;21.43;40.46
64644;BME280;51056;50.330;7.914;2023-05-25T13:17:48;101364.19;;;21.65;39.97
64644;BME280;51056;50.330;7.914;2023-05-25T13:20:58;101367.09;;;21.82;39.78
64644;BME280;51056;50.330;7.914;2023-05-25T13:24:02;101368.66;;;21.95;38.87
64644;BME280;51056;50.330;7.914;2023-05-25T13:27:05;101354.06;;;22.20;38.99
64644;BME280;51056;50.330;7.914;2023-05-25T13:30:16;101360.97;;;22.22;38.67
64644;BME280;51056;50.330;7.914;2023-05-25T13:33:19;101359.47;;;22.49;37.96
64644;BME280;51056;50.330;7.914;2023-05-25T13:36:24;101361.22;;;22.89;37.00
64644;BME280;51056;50.330;7.914;2023-05-25T13:39:27;101359.22;;;22.91;36.25
64644;BME280;51056;50.330;7.914;2023-05-25T13:42:32;101353.06;;;22.90;36.23
64644;BME280;51056;50.330;7.914;2023-05-25T13:45:39;101350.16;;;22.93;35.87
64644;BME280;51056;50.330;7.914;2023-05-25T13:48:42;101352.22;;;22.80;36.02
64644;BME280;51056;50.330;7.914;2023-05-25T13:51:51;101345.19;;;22.60;35.74
64644;BME280;51056;50.330;7.914;2023-05-25T13:54:55;101344.66;;;23.24;35.42
64644;BME280;51056;50.330;7.914;2023-05-25T13:57:58;101343.19;;;23.59;35.69
64644;BME280;51056;50.330;7.914;2023-05-25T14:01:02;101330.72;;;23.97;35.37
64644;BME280;51056;50.330;7.914;2023-05-25T14:04:06;101332.25;;;23.89;34.61
64644;BME280;51056;50.330;7.914;2023-05-25T14:07:09;101336.38;;;24.39;34.16
64644;BME280;51056;50.330;7.914;2023-05-25T14:10:14;101333.69;;;23.94;33.97
64644;BME280;51056;50.330;7.914;2023-05-25T14:13:17;101338.56;;;25.25;32.83
64644;BME280;51056;50.330;7.914;2023-05-25T14:16:21;101331.97;;;27.63;30.59
64644;BME280;51056;50.330;7.914;2023-05-25T14:19:24;101312.47;;;30.20;26.33
64644;BME280;51056;50.330;7.914;2023-05-25T14:22:31;101309.56;;;31.64;24.12
64644;BME280;51056;50.330;7.914;2023-05-25T14:25:34;101308.25;;;32.89;23.00
64644;BME280;51056;50.330;7.914;2023-05-25T14:28:37;101313.25;;;32.52;21.97
64644;BME280;51056;50.330;7.914;2023-05-25T14:31:40;101305.34;;;32.91;23.00
64644;BME280;51056;50.330;7.914;2023-05-25T14:34:43;101305.38;;;32.84;21.89
64644;BME280;51056;50.330;7.914;2023-05-25T14:37:47;101303.25;;;32.93;22.36
64644;BME280;51056;50.330;7.914;2023-05-25T14:40:50;101299.78;;;33.84;20.82
64644;BME280;51056;50.330;7.914;2023-05-25T14:43:54;101298.09;;;33.89;21.00
64644;BME280;51056;50.330;7.914;2023-05-25T14:46:57;101295.69;;;35.08;21.76
64644;BME280;51056;50.330;7.914;2023-05-25T14:50:00;101295.41;;;34.91;19.62
64644;BME280;51056;50.330;7.914;2023-05-25T14:53:03;101297.63;;;34.06;20.84
64644;BME280;51056;50.330;7.914;2023-05-25T14:56:06;101293.34;;;35.55;18.76
64644;BME280;51056;50.330;7.914;2023-05-25T14:59:11;101290.19;;;36.06;19.74
64644;BME280;51056;50.330;7.914;2023-05-25T15:02:14;101281.50;;;36.70;19.13
64644;BME280;51056;50.330;7.914;2023-05-25T15:05:17;101284.09;;;35.74;18.38
64644;BME280;51056;50.330;7.914;2023-05-25T15:08:20;101285.88;;;35.00;18.97
64644;BME280;51056;50.330;7.914;2023-05-25T15:11:23;101282.63;;;34.91;19.43
64644;BME280;51056;50.330;7.914;2023-05-25T15:14:27;101286.91;;;34.49;19.43
64644;BME280;51056;50.330;7.914;2023-05-25T15:17:30;101288.88;;;34.35;19.34
64644;BME280;51056;50.330;7.914;2023-05-25T15:20:33;101284.09;;;34.87;18.66
64644;BME280;51056;50.330;7.914;2023-05-25T15:23:36;101279.91;;;34.91;18.84
64644;BME280;51056;50.330;7.914;2023-05-25T15:26:39;101273.72;;;35.46;18.33
64644;BME280;51056;50.330;7.914;2023-05-25T15:29:44;101275.03;;;35.62;17.59
64644;BME280;51056;50.330;7.914;2023-05-25T15:32:47;101268.41;;;35.58;18.52
64644;BME280;51056;50.330;7.914;2023-05-25T15:35:51;101269.19;;;34.78;18.62
64644;BME280;51056;50.330;7.914;2023-05-25T15:38:54;101273.19;;;34.94;18.97
64644;BME280;51056;50.330;7.914;2023-05-25T15:41:57;101275.50;;;34.90;19.33
64644;BME280;51056;50.330;7.914;2023-05-25T15:45:02;101274.09;;;34.63;19.40
64644;BME280;51056;50.330;7.914;2023-05-25T15:48:06;101274.31;;;32.93;20.74
64644;BME280;51056;50.330;7.914;2023-05-25T15:51:11;101271.34;;;33.41;22.07
64644;BME280;51056;50.330;7.914;2023-05-25T15:54:18;101277.38;;;34.08;20.24
64644;BME280;51056;50.330;7.914;2023-05-25T15:57:21;101261.44;;;34.18;19.94
64644;BME280;51056;50.330;7.914;2023-05-25T16:00:25;101270.75;;;34.61;20.23
64644;BME280;51056;50.330;7.914;2023-05-25T16:03:28;101271.63;;;34.23;20.97
64644;BME280;51056;50.330;7.914;2023-05-25T16:06:32;101271.50;;;33.60;21.42
64644;BME280;51056;50.330;7.914;2023-05-25T16:09:35;101277.78;;;32.27;22.12
64644;BME280;51056;50.330;7.914;2023-05-25T16:12:38;101271.75;;;30.58;24.31